Station History

Weather Underground - logo

Station Historical Data
Daily Summary for October 18, 2017 Units:  English    Metric   Both
« Previous Day
Next Day »
Daily Weekly Monthly Yearly Custom
  High: Low: Average:
Temperature: 84.6 °F 56.0 °F 67.1 °F
Dew Point: 54.8 °F 42.0 °F 50.6 °F
Humidity: 81 % 23 % 59 %
Wind Speed: 3.5 mph 0.0 mph 0.4 mph
Wind Gust: 3.5 mph - -
Wind:- - SSE
Pressure: 30.03 in 29.90 in -
Precipitation: 0.00 in    
Historical Graphs
 
 
Tabular Data for October 18, 2017
Time Temperature Dew Point Pressure Wind Wind Speed Wind Gust Humidity Rainfall Rate (Hourly)
00:04 61.4 °F 51.1 °F 30.01 in Calm     69 % 0.00 in
00:09 61.8 °F 51.1 °F 30.01 in Calm     68 % 0.00 in
00:14 61.9 °F 51.2 °F 30.00 in Calm     68 % 0.00 in
00:19 61.8 °F 52.3 °F 30.01 in Calm     71 % 0.00 in
00:24 61.5 °F 52.4 °F 30.00 in Calm     72 % 0.00 in
00:29 61.3 °F 52.2 °F 30.00 in Calm     72 % 0.00 in
00:34 61.2 °F 52.5 °F 30.00 in Calm     73 % 0.00 in
00:39 61.1 °F 52.4 °F 30.00 in Calm     73 % 0.00 in
00:45 61.0 °F 52.7 °F 30.00 in Calm     74 % 0.00 in
00:50 61.0 °F 52.7 °F 30.00 in Calm     74 % 0.00 in
00:55 61.0 °F 52.7 °F 30.00 in Calm     74 % 0.00 in
01:00 61.1 °F 53.5 °F 30.00 in Calm     76 % 0.00 in
01:05 61.0 °F 53.0 °F 30.00 in Calm     75 % 0.00 in
01:10 61.2 °F 53.2 °F 30.00 in Calm     75 % 0.00 in
01:15 61.3 °F 53.7 °F 30.00 in Calm     76 % 0.00 in
01:20 61.3 °F 53.3 °F 30.00 in Calm     75 % 0.00 in
01:25 61.3 °F 52.9 °F 30.00 in Calm     74 % 0.00 in
01:30 61.5 °F 53.5 °F 30.00 in Calm     75 % 0.00 in
01:35 61.5 °F 53.9 °F 30.00 in Calm     76 % 0.00 in
01:40 61.1 °F 53.8 °F 30.00 in Calm     77 % 0.00 in
01:45 61.0 °F 53.7 °F 30.00 in Calm     77 % 0.00 in
01:50 61.1 °F 53.8 °F 30.00 in Calm     77 % 0.00 in
01:55 61.2 °F 54.3 °F 30.00 in Calm     78 % 0.00 in
02:00 61.1 °F 54.5 °F 30.00 in Calm     79 % 0.00 in
02:05 61.0 °F 54.1 °F 29.99 in Calm     78 % 0.00 in
02:10 61.0 °F 54.1 °F 29.99 in Calm     78 % 0.00 in
02:15 61.0 °F 54.4 °F 29.99 in Calm     79 % 0.00 in
02:20 60.9 °F 54.3 °F 29.99 in Calm     79 % 0.00 in
02:25 60.9 °F 54.7 °F 29.99 in Calm     80 % 0.00 in
02:30 60.7 °F 54.8 °F 30.00 in Calm     81 % 0.00 in
02:35 60.6 °F 54.4 °F 30.00 in Calm     80 % 0.00 in
02:40 60.5 °F 54.6 °F 29.99 in Calm     81 % 0.00 in
02:45 60.3 °F 54.4 °F 29.99 in Calm     81 % 0.00 in
02:50 60.2 °F 53.3 °F 29.99 in Calm     78 % 0.00 in
02:55 60.1 °F 52.9 °F 30.00 in Calm     77 % 0.00 in
03:00 60.0 °F 52.4 °F 30.00 in Calm     76 % 0.00 in
03:05 59.9 °F 52.3 °F 30.00 in Calm     76 % 0.00 in
03:10 59.9 °F 52.0 °F 30.00 in Calm     75 % 0.00 in
03:15 59.8 °F 51.9 °F 30.00 in Calm     75 % 0.00 in
03:20 59.9 °F 51.2 °F 30.00 in Calm     73 % 0.00 in
03:25 59.9 °F 51.6 °F 30.00 in Calm     74 % 0.00 in
03:30 59.9 °F 51.2 °F 30.00 in NNE 1.0 mph   73 % 0.00 in
03:35 59.9 °F 51.2 °F 29.99 in NNE 1.2 mph   73 % 0.00 in
03:41 59.9 °F 50.8 °F 29.99 in NNE 1.2 mph   72 % 0.00 in
03:46 59.9 °F 50.8 °F 29.99 in Calm     72 % 0.00 in
03:51 60.0 °F 50.9 °F 29.99 in Calm     72 % 0.00 in
03:56 60.0 °F 50.9 °F 29.99 in Calm     72 % 0.00 in
04:01 59.9 °F 50.8 °F 29.99 in Calm     72 % 0.00 in
04:06 60.0 °F 50.6 °F 29.99 in Calm     71 % 0.00 in
04:11 60.3 °F 50.1 °F 29.99 in NNE 1.2 mph 1.2 mph 69 % 0.00 in
04:16 60.6 °F 50.4 °F 29.99 in NNE 1.2 mph 1.2 mph 69 % 0.00 in
04:21 60.8 °F 49.8 °F 29.99 in NNE 1.2 mph   67 % 0.00 in
04:26 61.0 °F 50.0 °F 29.99 in NNE 1.2 mph   67 % 0.00 in
04:31 61.2 °F 49.7 °F 29.99 in Calm     66 % 0.00 in
04:36 61.1 °F 49.7 °F 29.99 in NNE 1.2 mph   66 % 0.00 in
04:41 60.9 °F 50.3 °F 29.99 in Calm     68 % 0.00 in
04:46 60.6 °F 50.4 °F 29.99 in Calm     69 % 0.00 in
04:51 60.4 °F 50.2 °F 29.99 in Calm     69 % 0.00 in
04:56 60.2 °F 50.0 °F 29.99 in NNE 1.2 mph   69 % 0.00 in
05:01 60.1 °F 50.3 °F 29.99 in Calm     70 % 0.00 in
05:06 60.0 °F 50.2 °F 29.99 in Calm     70 % 0.00 in
05:11 59.9 °F 50.1 °F 29.99 in NNE 1.2 mph   70 % 0.00 in
05:16 59.9 °F 49.7 °F 29.99 in Calm     69 % 0.00 in
05:21 60.0 °F 50.9 °F 29.99 in Calm     72 % 0.00 in
05:26 59.9 °F 50.8 °F 29.99 in Calm     72 % 0.00 in
05:31 59.8 °F 50.4 °F 29.99 in Calm     71 % 0.00 in
05:36 59.7 °F 49.9 °F 29.99 in Calm     70 % 0.00 in
05:41 59.7 °F 50.7 °F 29.99 in Calm     72 % 0.00 in
05:46 59.6 °F 50.2 °F 30.00 in Calm     71 % 0.00 in
05:51 59.6 °F 50.6 °F 29.99 in Calm     72 % 0.00 in
05:56 59.7 °F 50.7 °F 29.99 in Calm     72 % 0.00 in
06:01 59.7 °F 50.7 °F 29.99 in Calm     72 % 0.00 in
06:06 59.7 °F 51.0 °F 29.99 in Calm     73 % 0.00 in
06:11 59.7 °F 51.0 °F 29.99 in Calm     73 % 0.00 in
06:16 59.7 °F 50.7 °F 29.99 in Calm     72 % 0.00 in
06:21 59.7 °F 51.0 °F 29.99 in Calm     73 % 0.00 in
06:26 59.7 °F 52.1 °F 29.99 in Calm     76 % 0.00 in
06:31 59.6 °F 50.9 °F 29.99 in Calm     73 % 0.00 in
06:36 59.5 °F 50.5 °F 29.99 in Calm     72 % 0.00 in
06:41 59.5 °F 50.5 °F 29.99 in Calm     72 % 0.00 in
06:46 59.5 °F 50.8 °F 29.99 in Calm     73 % 0.00 in
06:51 59.6 °F 51.3 °F 29.99 in Calm     74 % 0.00 in
06:56 59.6 °F 50.6 °F 29.99 in Calm     72 % 0.00 in
07:01 59.6 °F 50.2 °F 29.99 in Calm     71 % 0.00 in
07:06 59.6 °F 50.2 °F 29.99 in Calm     71 % 0.00 in
07:11 59.6 °F 50.2 °F 29.99 in Calm     71 % 0.00 in
07:16 59.5 °F 50.1 °F 29.99 in NNE 1.2 mph 1.2 mph 71 % 0.00 in
07:21 59.4 °F 50.4 °F 29.99 in NNE 1.2 mph 1.2 mph 72 % 0.00 in
07:26 59.3 °F 50.3 °F 29.99 in Calm     72 % 0.00 in
07:31 59.2 °F 50.5 °F 30.00 in Calm     73 % 0.00 in
07:32 59.2 °F 50.2 °F 30.00 in NNE 1.2 mph 1.2 mph 72 % 0.00 in
07:37 59.1 °F 50.5 °F 30.00 in Calm     73 % 0.00 in
07:42 59.0 °F 50.0 °F 30.00 in Calm     72 % 0.00 in
07:47 59.0 °F 50.4 °F 30.00 in Calm     73 % 0.00 in
07:52 59.1 °F 50.5 °F 30.00 in Calm     73 % 0.00 in
07:57 59.3 °F 50.3 °F 30.01 in NNE 1.2 mph   72 % 0.00 in
08:02 59.6 °F 50.2 °F 30.01 in Calm     71 % 0.00 in
08:07 59.9 °F 50.5 °F 30.01 in Calm     71 % 0.00 in
08:12 60.2 °F 50.8 °F 30.01 in Calm     71 % 0.00 in
08:17 60.5 °F 50.7 °F 30.01 in Calm     70 % 0.00 in
08:22 60.8 °F 50.6 °F 30.01 in Calm     69 % 0.00 in
08:27 61.2 °F 50.9 °F 30.02 in Calm     69 % 0.00 in
08:32 61.5 °F 51.2 °F 30.02 in Calm     69 % 0.00 in
08:37 61.8 °F 51.9 °F 30.02 in Calm     70 % 0.00 in
08:42 62.0 °F 51.7 °F 30.02 in Calm     69 % 0.00 in
08:47 62.2 °F 52.3 °F 30.03 in Calm     70 % 0.00 in
08:52 62.4 °F 52.1 °F 30.03 in Calm     69 % 0.00 in
08:57 62.6 °F 52.3 °F 30.03 in Calm     69 % 0.00 in
09:02 62.8 °F 54.0 °F 30.03 in Calm     73 % 0.00 in
09:03 62.9 °F 54.1 °F 30.03 in Calm     73 % 0.00 in
09:08 63.0 °F 53.4 °F 30.03 in Calm     71 % 0.00 in
09:13 63.2 °F 54.0 °F 30.03 in Calm     72 % 0.00 in
09:18 63.4 °F 53.0 °F 30.03 in Calm     69 % 0.00 in
09:24 63.8 °F 53.8 °F 30.02 in Calm     70 % 0.00 in
09:28 64.1 °F 54.5 °F 30.02 in Calm     71 % 0.00 in
09:33 64.4 °F 52.8 °F 30.02 in Calm     66 % 0.00 in
09:38 64.7 °F 51.8 °F 30.02 in Calm     63 % 0.00 in
09:43 65.0 °F 52.5 °F 30.02 in Calm     64 % 0.00 in
09:49 65.4 °F 52.9 °F 30.02 in Calm     64 % 0.00 in
09:54 65.7 °F 52.8 °F 30.02 in Calm     63 % 0.00 in
09:59 66.0 °F 53.9 °F 30.02 in Calm     65 % 0.00 in
10:04 66.4 °F 52.5 °F 30.02 in Calm     61 % 0.00 in
10:09 66.9 °F 51.6 °F 30.02 in Calm     58 % 0.00 in
10:14 67.2 °F 52.4 °F 30.02 in Calm     59 % 0.00 in
10:19 67.3 °F 52.0 °F 30.02 in Calm     58 % 0.00 in
10:24 67.5 °F 52.2 °F 30.02 in Calm     58 % 0.00 in
10:29 67.6 °F 53.2 °F 30.02 in NE 1.2 mph 1.2 mph 60 % 0.00 in
10:34 67.7 °F 53.3 °F 30.02 in Calm     60 % 0.00 in
10:39 67.9 °F 54.0 °F 30.02 in NE 1.2 mph   61 % 0.00 in
10:44 68.1 °F 54.1 °F 30.02 in NE 1.2 mph   61 % 0.00 in
10:49 68.3 °F 53.4 °F 30.02 in Calm     59 % 0.00 in
10:54 68.7 °F 54.7 °F 30.02 in Calm     61 % 0.00 in
10:59 69.3 °F 53.4 °F 30.02 in NE 1.2 mph 1.2 mph 57 % 0.00 in
11:04 70.1 °F 53.2 °F 30.02 in Calm     55 % 0.00 in
11:09 71.4 °F 52.3 °F 30.01 in Calm     51 % 0.00 in
11:14 72.6 °F 50.0 °F 30.02 in SE 1.2 mph 1.2 mph 45 % 0.00 in
11:19 73.4 °F 50.8 °F 30.01 in SSE 1.2 mph 1.2 mph 45 % 0.00 in
11:24 73.8 °F 51.7 °F 30.01 in ESE 1.2 mph 1.2 mph 46 % 0.00 in
11:29 74.4 °F 51.7 °F 30.01 in SE 3.5 mph 3.5 mph 45 % 0.00 in
11:34 75.0 °F 51.0 °F 30.01 in SE 3.5 mph 3.5 mph 43 % 0.00 in
11:39 75.3 °F 51.9 °F 30.01 in Calm     44 % 0.00 in
11:44 76.1 °F 52.0 °F 30.01 in ENE 1.2 mph   43 % 0.00 in
11:49 76.9 °F 50.7 °F 30.01 in SE 3.5 mph 3.5 mph 40 % 0.00 in
11:54 77.1 °F 50.2 °F 30.01 in SE 3.5 mph 3.5 mph 39 % 0.00 in
11:59 77.1 °F 50.9 °F 30.01 in ENE 3.5 mph 3.5 mph 40 % 0.00 in
12:04 77.7 °F 50.8 °F 30.01 in ESE 2.3 mph 2.3 mph 39 % 0.00 in
12:09 77.8 °F 49.4 °F 30.00 in SE 2.3 mph 2.3 mph 37 % 0.00 in
12:14 78.2 °F 49.8 °F 30.00 in NW 1.2 mph   37 % 0.00 in
12:19 78.7 °F 50.2 °F 30.00 in NW 1.2 mph 1.2 mph 37 % 0.00 in
12:24 79.1 °F 51.3 °F 30.00 in SSE 2.3 mph 2.3 mph 38 % 0.00 in
12:29 79.7 °F 51.1 °F 30.00 in Calm     37 % 0.00 in
12:34 80.0 °F 52.1 °F 30.00 in Calm     38 % 0.00 in
12:39 80.5 °F 50.3 °F 29.99 in SE 1.2 mph 1.2 mph 35 % 0.00 in
12:44 80.7 °F 49.7 °F 29.99 in WSW 1.2 mph   34 % 0.00 in
12:49 80.8 °F 49.8 °F 29.99 in South 1.2 mph 1.2 mph 34 % 0.00 in
12:54 80.9 °F 47.4 °F 29.99 in SE 2.3 mph 2.3 mph 31 % 0.00 in
12:59 80.9 °F 49.1 °F 29.98 in NW 1.2 mph 1.2 mph 33 % 0.00 in
13:04 80.7 °F 51.3 °F 29.98 in NW 1.2 mph 1.2 mph 36 % 0.00 in
13:09 81.2 °F 50.2 °F 29.98 in WSW 2.3 mph 2.3 mph 34 % 0.00 in
13:14 81.8 °F 50.7 °F 29.98 in SE 2.3 mph 2.3 mph 34 % 0.00 in
13:15 81.8 °F 48.2 °F 29.98 in East 2.3 mph 2.3 mph 31 % 0.00 in
13:20 81.9 °F 49.1 °F 29.97 in NNW 1.2 mph 1.2 mph 32 % 0.00 in
13:25 82.3 °F 47.8 °F 29.97 in NNW 2.3 mph 2.3 mph 30 % 0.00 in
13:30 82.0 °F 48.4 °F 29.97 in WNW 1.2 mph 1.2 mph 31 % 0.00 in
13:35 82.0 °F 47.5 °F 29.96 in Calm     30 % 0.00 in
13:40 82.6 °F 51.4 °F 29.96 in SE 1.2 mph   34 % 0.00 in
13:45 83.1 °F 47.5 °F 29.96 in Calm     29 % 0.00 in
13:51 82.9 °F 46.4 °F 29.95 in NW 1.2 mph 1.2 mph 28 % 0.00 in
13:56 82.4 °F 47.8 °F 29.95 in West 2.3 mph 2.3 mph 30 % 0.00 in
14:14 83.2 °F 46.7 °F 29.94 in NNW 1.2 mph 1.2 mph 28 % 0.00 in
14:19 83.6 °F 46.1 °F 29.94 in West 1.0 mph 1.0 mph 27 % 0.00 in
14:24 83.2 °F 45.7 °F 29.94 in NW 2.3 mph 2.3 mph 27 % 0.00 in
14:29 83.1 °F 45.7 °F 29.94 in NNE 2.3 mph 2.3 mph 27 % 0.00 in
14:39 84.2 °F 45.6 °F 29.93 in SE 1.0 mph 1.0 mph 26 % 0.00 in
14:44 83.7 °F 42.0 °F 29.93 in NW 1.2 mph   23 % 0.00 in
14:49 83.7 °F 44.1 °F 29.93 in ENE 3.5 mph 3.5 mph 25 % 0.00 in
14:54 83.9 °F 45.3 °F 29.92 in SSE 2.3 mph 2.3 mph 26 % 0.00 in
14:59 84.2 °F 44.6 °F 29.92 in NW 1.2 mph 1.2 mph 25 % 0.00 in
15:04 84.2 °F 45.6 °F 29.92 in Calm     26 % 0.00 in
15:05 84.3 °F 45.7 °F 29.92 in Calm     26 % 0.00 in
15:10 84.4 °F 46.8 °F 29.92 in SW 2.3 mph 2.3 mph 27 % 0.00 in
15:15 84.6 °F 45.9 °F 29.92 in West 2.3 mph 2.3 mph 26 % 0.00 in
15:20 84.1 °F 47.5 °F 29.92 in Calm     28 % 0.00 in
15:25 83.9 °F 46.3 °F 29.92 in ENE 1.2 mph 1.2 mph 27 % 0.00 in
15:30 83.9 °F 45.3 °F 29.92 in North 2.3 mph 2.3 mph 26 % 0.00 in
15:35 83.8 °F 45.3 °F 29.91 in NNW 3.5 mph 3.5 mph 26 % 0.00 in
15:40 83.3 °F 44.8 °F 29.91 in NNE 1.2 mph 1.2 mph 26 % 0.00 in
15:45 83.0 °F 44.6 °F 29.91 in West 1.2 mph   26 % 0.00 in
15:50 82.9 °F 45.5 °F 29.91 in Calm   0.1 mph 27 % 0.00 in
15:55 82.7 °F 44.3 °F 29.91 in Calm     26 % 0.00 in
16:00 82.8 °F 43.4 °F 29.91 in North 1.2 mph 1.2 mph 25 % 0.00 in
16:05 82.6 °F 42.1 °F 29.91 in NE 1.2 mph 1.2 mph 24 % 0.00 in
16:15 82.4 °F 44.1 °F 29.91 in ENE 1.2 mph   26 % 0.00 in
16:20 82.4 °F 46.0 °F 29.91 in WSW 2.3 mph 2.3 mph 28 % 0.00 in
16:25 82.2 °F 43.9 °F 29.91 in NW 2.3 mph 2.3 mph 26 % 0.00 in
16:30 82.1 °F 44.8 °F 29.91 in Calm   0.2 mph 27 % 0.00 in
16:35 82.0 °F 43.7 °F 29.91 in NNW 1.2 mph 1.2 mph 26 % 0.00 in
16:40 81.9 °F 42.6 °F 29.91 in NW 1.2 mph   25 % 0.00 in
16:45 81.7 °F 43.5 °F 29.90 in Calm   0.1 mph 26 % 0.00 in
16:50 81.6 °F 45.3 °F 29.91 in Calm     28 % 0.00 in
16:56 81.3 °F 46.9 °F 29.90 in Calm     30 % 0.00 in
17:01 80.9 °F 44.7 °F 29.91 in Calm     28 % 0.00 in
17:06 80.6 °F 44.5 °F 29.91 in Calm     28 % 0.00 in
17:11 80.2 °F 46.8 °F 29.91 in Calm     31 % 0.00 in
17:16 79.6 °F 46.3 °F 29.91 in Calm     31 % 0.00 in
17:21 78.8 °F 47.3 °F 29.91 in Calm     33 % 0.00 in
17:26 78.2 °F 49.1 °F 29.91 in Calm     36 % 0.00 in
17:31 77.5 °F 48.4 °F 29.91 in Calm     36 % 0.00 in
17:36 76.9 °F 49.4 °F 29.91 in Calm     38 % 0.00 in
17:41 76.4 °F 49.6 °F 29.91 in Calm     39 % 0.00 in
17:46 75.7 °F 49.7 °F 29.91 in Calm     40 % 0.00 in
17:51 74.9 °F 49.6 °F 29.91 in Calm     41 % 0.00 in
17:56 74.2 °F 49.6 °F 29.91 in Calm     42 % 0.00 in
18:01 73.5 °F 50.2 °F 29.91 in Calm     44 % 0.00 in
18:02 73.3 °F 49.4 °F 29.91 in Calm     43 % 0.00 in
18:07 72.7 °F 50.7 °F 29.91 in Calm     46 % 0.00 in
18:12 72.0 °F 50.7 °F 29.91 in Calm     47 % 0.00 in
18:17 71.4 °F 51.2 °F 29.91 in Calm     49 % 0.00 in
18:22 70.8 °F 50.7 °F 29.91 in Calm     49 % 0.00 in
18:27 70.4 °F 50.3 °F 29.91 in Calm     49 % 0.00 in
18:32 70.1 °F 50.6 °F 29.90 in Calm     50 % 0.00 in
18:37 69.7 °F 50.8 °F 29.90 in Calm     51 % 0.00 in
18:42 69.2 °F 51.3 °F 29.90 in Calm     53 % 0.00 in
18:47 69.0 °F 51.2 °F 29.91 in Calm     53 % 0.00 in
18:53 68.6 °F 51.8 °F 29.91 in Calm     55 % 0.00 in
18:55 68.3 °F 51.5 °F 29.91 in Calm     55 % 0.00 in
19:00 67.8 °F 52.0 °F 29.91 in Calm     57 % 0.00 in
19:05 67.5 °F 51.2 °F 29.91 in Calm     56 % 0.00 in
19:10 67.1 °F 51.8 °F 29.91 in Calm     58 % 0.00 in
19:15 66.7 °F 52.4 °F 29.91 in Calm     60 % 0.00 in
19:20 66.4 °F 52.5 °F 29.91 in Calm     61 % 0.00 in
19:25 66.0 °F 51.7 °F 29.91 in Calm     60 % 0.00 in
19:30 65.8 °F 52.0 °F 29.91 in Calm     61 % 0.00 in
19:35 65.8 °F 52.0 °F 29.91 in Calm     61 % 0.00 in
19:40 65.8 °F 52.0 °F 29.91 in Calm     61 % 0.00 in
19:45 65.5 °F 51.2 °F 29.91 in Calm     60 % 0.00 in
19:50 65.2 °F 51.4 °F 29.91 in Calm     61 % 0.00 in
19:55 65.1 °F 51.3 °F 29.91 in Calm     61 % 0.00 in
20:00 64.7 °F 51.8 °F 29.91 in Calm     63 % 0.00 in
20:05 64.5 °F 51.6 °F 29.91 in Calm     63 % 0.00 in
20:10 64.5 °F 51.6 °F 29.91 in Calm     63 % 0.00 in
20:16 64.3 °F 53.5 °F 29.91 in Calm     68 % 0.00 in
20:21 63.8 °F 53.4 °F 29.91 in Calm     69 % 0.00 in
20:22 63.7 °F 53.3 °F 29.91 in Calm     69 % 0.00 in
20:23 63.5 °F 53.1 °F 29.91 in Calm     69 % 0.00 in
20:25 63.4 °F 53.0 °F 29.91 in Calm     69 % 0.00 in
20:26 63.3 °F 52.6 °F 29.91 in Calm     68 % 0.00 in
20:28 63.2 °F 52.5 °F 29.91 in Calm     68 % 0.00 in
20:33 63.0 °F 53.1 °F 29.91 in Calm     70 % 0.00 in
20:37 62.8 °F 52.9 °F 29.91 in Calm     70 % 0.00 in
20:43 62.5 °F 53.3 °F 29.91 in Calm     72 % 0.00 in
20:48 62.2 °F 53.4 °F 29.91 in Calm     73 % 0.00 in
20:53 62.0 °F 53.2 °F 29.91 in Calm     73 % 0.00 in
20:58 61.9 °F 53.1 °F 29.91 in Calm     73 % 0.00 in
21:03 61.8 °F 53.1 °F 29.91 in Calm     73 % 0.00 in
21:08 61.4 °F 52.7 °F 29.91 in Calm     73 % 0.00 in
21:13 60.8 °F 52.1 °F 29.91 in Calm     73 % 0.00 in
21:18 60.6 °F 51.9 °F 29.92 in Calm     73 % 0.00 in
21:28 61.0 °F 51.9 °F 29.92 in Calm     72 % 0.00 in
21:33 61.1 °F 51.6 °F 29.92 in Calm     71 % 0.00 in
21:38 61.1 °F 51.2 °F 29.92 in Calm     70 % 0.00 in
21:43 61.2 °F 50.9 °F 29.92 in Calm     69 % 0.00 in
21:48 61.3 °F 50.2 °F 29.92 in Calm     67 % 0.00 in
21:53 61.2 °F 50.6 °F 29.92 in Calm     68 % 0.00 in
21:58 60.8 °F 51.7 °F 29.92 in Calm     72 % 0.00 in
22:03 59.8 °F 50.8 °F 29.92 in Calm     72 % 0.00 in
22:08 59.0 °F 50.7 °F 29.92 in Calm     74 % 0.00 in
22:13 58.6 °F 50.7 °F 29.92 in Calm     75 % 0.00 in
22:18 58.4 °F 50.9 °F 29.92 in Calm     76 % 0.00 in
22:23 58.2 °F 51.0 °F 29.92 in Calm     77 % 0.00 in
22:28 58.3 °F 50.4 °F 29.92 in Calm     75 % 0.00 in
22:33 58.3 °F 51.1 °F 29.92 in Calm     77 % 0.00 in
22:38 58.3 °F 50.8 °F 29.92 in Calm     76 % 0.00 in
22:43 58.3 °F 51.1 °F 29.92 in Calm     77 % 0.00 in
22:48 58.1 °F 50.9 °F 29.92 in Calm     77 % 0.00 in
22:53 57.9 °F 51.4 °F 29.92 in Calm     79 % 0.00 in
22:58 57.7 °F 51.2 °F 29.92 in Calm     79 % 0.00 in
23:03 57.6 °F 51.1 °F 29.92 in Calm     79 % 0.00 in
23:08 57.5 °F 51.4 °F 29.92 in Calm     80 % 0.00 in
23:13 57.4 °F 51.3 °F 29.92 in Calm     80 % 0.00 in
23:18 57.2 °F 51.1 °F 29.92 in Calm     80 % 0.00 in
23:23 57.2 °F 51.1 °F 29.92 in Calm     80 % 0.00 in
23:28 57.0 °F 50.9 °F 29.92 in Calm     80 % 0.00 in
23:33 56.9 °F 51.1 °F 29.92 in Calm     81 % 0.00 in
23:38 56.7 °F 50.9 °F 29.92 in Calm     81 % 0.00 in
23:43 56.5 °F 50.4 °F 29.92 in Calm     80 % 0.00 in
23:48 56.1 °F 49.7 °F 29.92 in Calm     79 % 0.00 in
23:53 56.0 °F 49.6 °F 29.92 in Calm     79 % 0.00 in
23:58 56.0 °F 49.6 °F 29.92 in Calm     79 % 0.00 in
Park Place, Exeter, Tulare County, California, USA
Compliments of Weather Underground - 2.75 mb